Time;durP1;ratioP1;P1;durP2;ratioP2;P2;SDS_P1;SDS_P2;PMS_P1;PMS_P2;Temp;Humidity;BMP_temperature;BMP_pressure;BME280_temperature;BME280_humidity;BME280_pressure;Samples;Min_cycle;Max_cycle;Signal;HPM_P1;HPM_P2
2022/07/19 00:00:08;;;;;;;3.40;1.20;;;;;;;22.09;38.29;100792.44;5027563;28;20037;-65
2022/07/19 00:02:34;;;;;;;3.05;1.40;;;;;;;22.34;37.59;100795.97;5043485;22;20054;-65
2022/07/19 00:04:59;;;;;;;1.83;1.20;;;;;;;22.42;37.11;100798.38;5014483;28;20049;-65
2022/07/19 00:07:24;;;;;;;3.85;1.30;;;;;;;22.53;36.42;100801.38;5015538;28;20038;-66
2022/07/19 00:09:49;;;;;;;1.77;1.08;;;;;;;22.64;36.29;100798.75;5012355;28;20045;-66
2022/07/19 00:12:15;;;;;;;2.07;1.00;;;;;;;22.79;35.99;100800.25;5014540;28;20130;-65
2022/07/19 00:14:40;;;;;;;5.07;1.55;;;;;;;22.86;35.63;100806.38;5020746;28;20275;-66
2022/07/19 00:17:06;;;;;;;3.65;1.27;;;;;;;22.89;35.45;100800.53;5010712;28;20065;-66
2022/07/19 00:19:31;;;;;;;2.28;1.27;;;;;;;22.88;35.63;100807.81;5012358;28;20143;-67
2022/07/19 00:21:56;;;;;;;3.47;1.20;;;;;;;22.81;36.03;100808.91;5012476;28;20033;-65
2022/07/19 00:24:22;;;;;;;2.00;1.17;;;;;;;22.73;36.19;100801.97;5012992;28;20049;-66
2022/07/19 00:26:47;;;;;;;2.00;1.20;;;;;;;22.64;36.31;100809.53;5027649;28;20033;-66
2022/07/19 00:29:12;;;;;;;2.58;1.02;;;;;;;22.54;36.61;100800.31;5030014;28;20233;-66
2022/07/19 00:31:38;;;;;;;2.22;1.10;;;;;;;22.47;36.42;100803.91;5030379;28;20120;-67
2022/07/19 00:34:03;;;;;;;2.22;1.20;;;;;;;22.54;36.64;100808.41;5015125;28;20033;-66
2022/07/19 00:36:28;;;;;;;2.92;1.35;;;;;;;22.51;36.50;100804.28;5010196;28;20033;-67
2022/07/19 00:38:53;;;;;;;1.92;1.00;;;;;;;22.50;36.61;100797.25;5029546;28;20120;-67
2022/07/19 00:41:19;;;;;;;3.55;1.17;;;;;;;22.54;36.10;100798.44;5026978;28;20498;-66
2022/07/19 00:43:44;;;;;;;3.08;1.20;;;;;;;22.63;35.66;100799.78;5010568;28;20045;-66
2022/07/19 00:46:20;;;;;;;2.95;1.30;;;;;;;22.79;35.23;100798.38;5028747;28;20563;-67
2022/07/19 00:48:47;;;;;;;2.58;1.45;;;;;;;22.94;35.15;100803.38;5021003;28;20084;-67
2022/07/19 00:51:14;;;;;;;2.83;1.48;;;;;;;23.04;35.47;100803.69;5019084;28;20037;-67
2022/07/19 00:53:40;;;;;;;3.60;1.40;;;;;;;23.01;34.92;100798.75;5022065;28;20124;-67
2022/07/19 00:56:07;;;;;;;2.28;1.10;;;;;;;22.93;35.36;100806.28;5021148;28;20036;-67
2022/07/19 00:58:34;;;;;;;2.85;1.30;;;;;;;22.78;36.29;100802.09;5027592;28;20080;-67
2022/07/19 01:01:01;;;;;;;2.65;1.23;;;;;;;22.65;36.14;100804.97;5029489;28;20034;-67
2022/07/19 01:03:27;;;;;;;3.40;1.45;;;;;;;22.61;36.15;100811.84;5024167;28;20037;-66
2022/07/19 01:05:52;;;;;;;2.67;1.30;;;;;;;22.56;36.63;100809.81;5021289;28;20040;-66
2022/07/19 01:08:18;;;;;;;2.00;1.20;;;;;;;22.52;36.49;100805.94;5021112;28;20034;-67
2022/07/19 01:10:44;;;;;;;1.95;1.10;;;;;;;22.50;36.35;100809.88;5024417;28;20032;-66
2022/07/19 01:13:12;;;;;;;1.48;0.95;;;;;;;22.50;36.21;100808.03;5029765;28;20045;-67
2022/07/19 01:15:37;;;;;;;2.60;1.30;;;;;;;;;;5024975;28;20116;-66
2022/07/19 01:18:02;;;;;;;2.67;1.30;;;;;;;22.32;37.26;100811.53;5026363;28;20129;-66
2022/07/19 01:20:28;;;;;;;3.20;1.50;;;;;;;22.17;38.26;100803.78;5024874;28;20794;-67
2022/07/19 01:22:53;;;;;;;3.00;1.42;;;;;;;22.01;38.60;100799.75;5027159;28;20033;-66
2022/07/19 01:25:22;;;;;;;2.17;1.33;;;;;;;21.79;39.91;100799.34;5019031;28;20392;-67
2022/07/19 01:27:51;;;;;;;2.75;1.48;;;;;;;21.66;40.44;100804.81;5025618;28;20042;-66
2022/07/19 01:30:19;;;;;;;1.70;1.20;;;;;;;21.54;40.52;100804.69;5021490;28;20494;-67
2022/07/19 01:32:45;;;;;;;2.53;1.67;;;;;;;21.36;41.66;100804.59;5019794;28;20046;-66
2022/07/19 01:35:11;;;;;;;2.88;1.50;;;;;;;21.33;41.02;100802.31;5019363;28;20055;-66
2022/07/19 01:37:37;;;;;;;4.03;1.50;;;;;;;21.29;41.31;100799.22;5024527;28;20049;-66
2022/07/19 01:40:04;;;;;;;2.33;1.30;;;;;;;21.28;41.16;100804.81;5025611;28;20033;-68
2022/07/19 01:42:29;;;;;;;2.72;1.52;;;;;;;21.25;41.26;100805.25;5011232;28;20407;-66
2022/07/19 01:44:55;;;;;;;2.45;1.33;;;;;;;21.23;40.86;100805.47;5026835;28;20042;-66
2022/07/19 01:47:20;;;;;;;2.83;1.20;;;;;;;21.19;40.90;100802.41;5026329;28;20041;-67
2022/07/19 01:49:45;;;;;;;1.90;1.20;;;;;;;21.15;41.19;100797.66;5023081;28;20045;-66
2022/07/19 01:52:10;;;;;;;2.33;1.27;;;;;;;21.08;41.60;100805.75;5020471;28;20087;-66
2022/07/19 01:54:36;;;;;;;1.98;1.48;;;;;;;21.04;41.38;100796.44;5022488;28;20065;-66
2022/07/19 01:57:01;;;;;;;3.33;1.40;;;;;;;20.95;41.96;100801.28;5029396;28;20038;-66
2022/07/19 01:59:26;;;;;;;3.22;1.20;;;;;;;20.88;41.56;100795.09;5017437;28;20273;-66
2022/07/19 02:01:52;;;;;;;2.08;1.30;;;;;;;20.82;41.80;100800.50;5002667;28;20036;-67
2022/07/19 02:04:17;;;;;;;3.60;1.50;;;;;;;20.72;41.83;100793.69;5017314;28;20037;-67
2022/07/19 02:06:42;;;;;;;;;;;;;;;20.62;43.22;100792.47;5018771;28;20030;-66
2022/07/19 02:09:07;;;;;;;;;;;;;;;20.51;43.43;100791.25;5026588;28;19963;-67
2022/07/19 02:11:35;;;;;;;;;;;;;;;20.39;43.60;100784.88;5006589;28;20349;-67
2022/07/19 02:14:01;;;;;;;;;;;;;;;20.29;43.38;100785.31;5031100;28;19917;-66
2022/07/19 02:16:26;;;;;;;;;;;;;;;20.20;43.21;100786.56;5023871;28;20008;-66
2022/07/19 02:18:52;;;;;;;;;;;;;;;20.13;43.29;100781.22;5031950;28;19913;-67
2022/07/19 02:21:18;;;;;;;;;;;;;;;20.12;42.31;100777.69;5029317;28;20442;-67
2022/07/19 02:23:43;;;;;;;;;;;;;;;20.19;42.82;100774.16;5024555;28;19918;-67
2022/07/19 02:26:08;;;;;;;;;;;;;;;20.13;42.31;100784.72;5032666;28;19913;-67
2022/07/19 02:28:33;;;;;;;;;;;;;;;20.07;42.28;100772.13;5027083;28;20581;-67
2022/07/19 02:30:58;;;;;;;;;;;;;;;20.02;42.27;100777.31;5025238;28;19921;-67
2022/07/19 02:33:24;;;;;;;;;;;;;;;19.97;42.33;100773.56;5024386;28;19967;-67
2022/07/19 02:35:49;;;;;;;;;;;;;;;19.93;42.18;100783.91;5021174;28;20045;-67
2022/07/19 02:38:14;;;;;;;;;;;;;;;19.91;42.02;100784.13;4998115;28;20449;-67
2022/07/19 02:40:39;;;;;;;;;;;;;;;19.86;42.32;100791.97;5016369;28;19918;-66
2022/07/19 02:43:04;;;;;;;;;;;;;;;19.82;42.06;100787.22;5012984;28;19924;-67
2022/07/19 02:45:29;;;;;;;;;;;;;;;19.80;42.01;100792.78;4990990;28;20370;-67
2022/07/19 02:47:55;;;;;;;;;;;;;;;19.78;42.48;100788.66;5009018;28;19964;-67
2022/07/19 02:50:20;;;;;;;;;;;;;;;19.72;42.51;100799.19;4994396;28;19940;-67
2022/07/19 02:52:45;;;;;;;;;;;;;;;19.66;43.05;100799.13;5009383;28;19948;-67
2022/07/19 02:55:10;;;;;;;;;;;;;;;19.55;43.62;100803.25;5006015;28;20371;-66
2022/07/19 02:57:35;;;;;;;;;;;;;;;19.46;44.25;100796.44;5000690;28;19918;-67
2022/07/19 03:00:01;;;;;;;;;;;;;;;19.37;45.04;100803.00;5011243;28;19924;-67
2022/07/19 03:02:26;;;;;;;2.45;1.30;;;;;;;19.30;44.10;100803.81;5014228;28;20290;-66
2022/07/19 03:04:52;;;;;;;2.43;1.60;;;;;;;19.40;44.86;100786.50;5007266;28;20417;-66
2022/07/19 03:07:17;;;;;;;2.57;1.60;;;;;;;19.44;45.07;100793.13;5008285;28;20500;-66
2022/07/19 03:09:42;;;;;;;1.88;1.23;;;;;;;19.30;45.58;100789.59;5012016;28;20042;-66
2022/07/19 03:12:08;;;;;;;2.47;1.33;;;;;;;19.16;46.48;100796.75;5014674;28;21326;-67
2022/07/19 03:14:33;;;;;;;;;;;;;;;18.97;47.56;100792.97;5014071;28;20057;-67
2022/07/19 03:16:58;;;;;;;2.23;1.50;;;;;;;18.84;47.73;100791.09;5009953;28;19926;-66
2022/07/19 03:19:27;;;;;;;2.60;1.50;;;;;;;18.74;47.44;100797.81;5013592;28;20045;-67
2022/07/19 03:21:53;;;;;;;2.20;1.30;;;;;;;18.67;46.87;100795.09;5007007;28;20033;-67
2022/07/19 03:24:18;;;;;;;4.40;1.70;;;;;;;18.58;47.59;100793.63;5011646;28;20096;-67
2022/07/19 03:26:44;;;;;;;2.88;1.48;;;;;;;18.51;48.16;100790.06;5009153;28;20526;-66
2022/07/19 03:29:09;;;;;;;2.70;1.43;;;;;;;18.43;48.09;100786.53;5013698;28;20034;-66
2022/07/19 03:31:34;;;;;;;3.47;1.80;;;;;;;18.38;48.75;100791.66;5010324;28;20281;-66
2022/07/19 03:33:59;;;;;;;3.40;1.90;;;;;;;18.31;50.78;100792.63;5010005;28;20301;-67
2022/07/19 03:36:25;;;;;;;3.13;1.80;;;;;;;18.23;50.49;100788.25;5010407;28;20044;-67
2022/07/19 03:38:50;;;;;;;2.33;1.40;;;;;;;18.23;50.24;100786.41;5010875;28;20029;-66
2022/07/19 03:41:16;;;;;;;2.70;1.23;;;;;;;18.33;49.33;100787.88;5008866;28;20034;-66
2022/07/19 03:43:41;;;;;;;2.20;1.33;;;;;;;18.39;48.70;100774.56;5012025;28;20034;-66
2022/07/19 03:46:06;;;;;;;1.42;0.95;;;;;;;18.41;48.53;100779.72;5011915;28;20343;-67
2022/07/19 03:48:31;;;;;;;1.58;1.00;;;;;;;18.58;48.18;100782.91;5008043;28;20466;-66
2022/07/19 03:50:57;;;;;;;2.10;1.13;;;;;;;18.49;49.12;100779.53;5009478;28;20064;-66
2022/07/19 03:53:22;;;;;;;2.70;1.30;;;;;;;18.39;49.81;100787.13;5013650;28;20069;-66
2022/07/19 03:55:47;;;;;;;1.77;1.17;;;;;;;18.48;49.53;100783.25;5014475;28;20417;-66
2022/07/19 03:58:12;;;;;;;2.73;1.30;;;;;;;18.35;50.21;100777.81;5008267;28;20067;-67
2022/07/19 04:00:38;;;;;;;2.47;1.38;;;;;;;18.29;50.64;100786.66;5009187;28;20280;-67
2022/07/19 04:03:03;;;;;;;2.17;1.50;;;;;;;18.26;50.23;100790.53;5008796;28;20038;-66
2022/07/19 04:05:29;;;;;;;2.80;1.70;;;;;;;18.27;49.99;100796.72;5009381;28;20086;-66
2022/07/19 04:07:54;;;;;;;3.65;2.00;;;;;;;18.24;50.75;100787.22;5015063;28;20104;-66
2022/07/19 04:10:19;;;;;;;3.28;1.60;;;;;;;18.24;50.42;100789.91;5010331;28;20050;-67
2022/07/19 04:12:44;;;;;;;2.08;1.40;;;;;;;18.24;49.83;100790.72;5020864;28;20560;-67
2022/07/19 04:15:10;;;;;;;2.50;1.57;;;;;;;18.24;49.93;100798.75;5016261;28;20033;-66
2022/07/19 04:17:35;;;;;;;3.22;1.88;;;;;;;18.26;49.86;100793.22;5021593;28;20330;-67
2022/07/19 04:20:01;;;;;;;2.53;1.48;;;;;;;18.30;49.59;100799.00;5010475;28;20080;-66
2022/07/19 04:22:26;;;;;;;4.00;1.40;;;;;;;18.38;49.66;100814.94;5010628;28;20038;-67
2022/07/19 04:24:51;;;;;;;2.08;1.30;;;;;;;18.43;49.27;100813.31;4993835;28;20037;-66
2022/07/19 04:27:17;;;;;;;2.58;1.48;;;;;;;18.51;49.54;100817.66;5000825;28;20559;-67
2022/07/19 04:29:42;;;;;;;3.05;1.70;;;;;;;18.55;50.34;100824.28;4995595;28;20426;-67
2022/07/19 04:32:08;;;;;;;2.63;1.45;;;;;;;18.57;50.48;100818.75;5002685;28;20034;-67
2022/07/19 04:34:33;;;;;;;4.32;1.70;;;;;;;18.59;50.62;100824.72;5010516;28;20499;-67
2022/07/19 04:36:58;;;;;;;3.95;1.77;;;;;;;18.61;51.05;100826.16;5000091;28;20087;-67
2022/07/19 04:39:23;;;;;;;4.95;2.35;;;;;;;18.65;51.44;100819.41;5011828;28;20042;-66
2022/07/19 04:41:49;;;;;;;3.03;1.92;;;;;;;18.70;51.31;100818.00;5002701;28;20402;-67
2022/07/19 04:44:14;;;;;;;2.90;1.70;;;;;;;18.75;51.07;100820.91;5005883;28;20045;-67
2022/07/19 04:46:39;;;;;;;2.85;1.50;;;;;;;18.79;50.85;100820.34;4993983;28;20029;-67
2022/07/19 04:49:05;;;;;;;5.10;1.70;;;;;;;18.80;52.16;100821.16;4999075;28;20046;-67
2022/07/19 04:51:30;;;;;;;3.88;1.73;;;;;;;18.75;52.44;100819.03;5015189;28;20285;-66
2022/07/19 04:53:55;;;;;;;3.72;1.80;;;;;;;18.75;52.26;100819.03;5018709;28;20033;-66
2022/07/19 04:56:21;;;;;;;5.43;2.17;;;;;;;18.74;53.28;100819.25;5013718;28;20049;-66
2022/07/19 04:58:46;;;;;;;3.58;2.00;;;;;;;18.75;53.89;100815.53;5012078;28;20506;-66
2022/07/19 05:01:11;;;;;;;3.38;2.10;;;;;;;18.80;53.49;100819.28;5011583;28;20400;-66
2022/07/19 05:03:36;;;;;;;4.40;2.35;;;;;;;18.83;53.57;100812.72;5009100;28;20065;-66
2022/07/19 05:06:02;;;;;;;3.80;2.07;;;;;;;18.89;52.94;100815.44;5009066;28;20048;-66
2022/07/19 05:08:27;;;;;;;3.95;2.00;;;;;;;18.94;52.72;100814.84;5008093;28;20324;-66
2022/07/19 05:10:53;;;;;;;3.65;2.05;;;;;;;19.01;52.69;100814.88;5008956;28;20037;-65
2022/07/19 05:13:18;;;;;;;3.90;2.10;;;;;;;19.07;52.39;100819.44;5014092;28;20128;-66
2022/07/19 05:15:43;;;;;;;4.97;2.22;;;;;;;19.14;52.49;100814.94;5011925;28;20486;-66
2022/07/19 05:18:08;;;;;;;2.67;1.67;;;;;;;19.22;51.66;100813.91;5006006;28;20037;-66
2022/07/19 05:20:34;;;;;;;3.22;1.95;;;;;;;19.28;52.32;100807.72;5011614;28;20288;-66
2022/07/19 05:22:59;;;;;;;3.67;1.90;;;;;;;19.34;52.04;100804.25;5009560;28;20036;-66
2022/07/19 05:25:25;;;;;;;4.50;2.00;;;;;;;19.45;52.29;100802.81;5010880;28;20034;-66
2022/07/19 05:27:50;;;;;;;3.83;1.85;;;;;;;19.56;52.17;100806.75;5010078;28;20469;-66
2022/07/19 05:30:15;;;;;;;3.13;1.83;;;;;;;19.66;52.09;100802.66;5006426;28;20145;-67
2022/07/19 05:32:41;;;;;;;2.38;1.60;;;;;;;19.82;52.02;100800.63;4993362;28;20495;-66
2022/07/19 05:35:06;;;;;;;3.40;1.70;;;;;;;19.98;52.02;100804.78;4992190;28;20046;-66
2022/07/19 05:37:32;;;;;;;4.85;2.00;;;;;;;20.12;52.10;100801.03;5013916;28;20089;-66
2022/07/19 05:39:57;;;;;;;3.75;2.45;;;;;;;20.27;51.92;100800.81;5015939;28;20033;-66
2022/07/19 05:42:22;;;;;;;5.07;2.33;;;;;;;20.44;51.84;100803.88;5010330;28;20037;-67
2022/07/19 05:44:47;;;;;;;3.57;2.10;;;;;;;20.63;51.16;100799.53;5011035;28;20038;-66
2022/07/19 05:47:13;;;;;;;3.45;2.17;;;;;;;20.90;50.70;100798.38;5008418;28;20290;-66
2022/07/19 05:49:38;;;;;;;3.30;1.98;;;;;;;21.30;49.96;100798.19;5016765;28;20030;-67
2022/07/19 05:52:04;;;;;;;4.93;2.17;;;;;;;21.87;49.27;100808.19;5008693;28;20057;-67
2022/07/19 05:54:29;;;;;;;;;;;;;;;22.45;48.58;100807.88;5015181;28;20269;-67
2022/07/19 05:56:54;;;;;;;;;;;;;;;22.98;48.11;100806.44;5007927;28;19948;-67
2022/07/19 05:59:21;;;;;;;;;;;;;;;23.57;47.35;100806.69;5010036;28;20390;-66
2022/07/19 06:01:48;;;;;;;2.70;1.70;;;;;;;24.22;46.07;100806.69;5011517;28;20179;-67
2022/07/19 06:04:13;;;;;;;3.50;1.80;;;;;;;24.85;45.11;100815.06;5026527;22;20050;-65
2022/07/19 06:06:38;;;;;;;;;;;;;;;25.43;44.70;100805.91;5011726;28;20030;-65
2022/07/19 06:09:05;;;;;;;;;;;;;;;25.90;43.89;100813.78;5014821;28;19917;-65
2022/07/19 06:11:30;;;;;;;4.53;1.80;;;;;;;26.52;42.83;100818.22;5016557;28;20269;-65
2022/07/19 06:13:56;;;;;;;3.85;2.13;;;;;;;26.98;40.94;100818.84;5013765;28;20056;-65
2022/07/19 06:16:21;;;;;;;3.28;2.00;;;;;;;27.51;40.69;100821.84;5012001;28;20486;-65
2022/07/19 06:18:47;;;;;;;3.80;1.85;;;;;;;27.73;40.13;100824.47;5024954;28;20030;-65
2022/07/19 06:21:15;;;;;;;4.00;1.60;;;;;;;28.19;39.67;100811.25;5018771;28;20038;-65
2022/07/19 06:23:42;;;;;;;4.13;2.10;;;;;;;28.75;38.32;100813.50;5021614;28;20026;-65
2022/07/19 06:26:09;;;;;;;2.90;1.83;;;;;;;29.11;37.48;100822.63;5019012;28;20116;-66
2022/07/19 06:28:34;;;;;;;3.88;1.80;;;;;;;29.37;36.45;100809.88;5018981;28;20034;-65
2022/07/19 06:30:59;;;;;;;3.53;1.80;;;;;;;29.80;35.81;100820.56;4990900;28;20091;-67
2022/07/19 06:33:26;;;;;;;3.78;1.80;;;;;;;30.06;35.48;100819.44;5006664;28;20038;-66
2022/07/19 06:35:52;;;;;;;4.50;1.50;;;;;;;30.28;35.50;100823.78;5008210;28;20041;-66
2022/07/19 06:38:18;;;;;;;5.28;1.70;;;;;;;30.50;34.73;100817.16;5009702;28;20074;-66
2022/07/19 06:40:44;;;;;;;2.78;1.40;;;;;;;30.83;34.29;100823.88;5012786;28;20510;-66
2022/07/19 06:43:09;;;;;;;2.25;1.20;;;;;;;31.48;32.17;100827.34;5012143;28;20783;-66
2022/07/19 06:45:35;;;;;;;3.85;1.30;;;;;;;31.44;32.45;100817.25;5011719;28;20037;-66
2022/07/19 06:48:00;;;;;;;4.30;1.90;;;;;;;31.55;31.82;100820.75;5012878;28;20033;-66
2022/07/19 06:50:26;;;;;;;2.80;1.80;;;;;;;31.64;31.84;100825.31;5011134;28;20042;-66
2022/07/19 06:52:51;;;;;;;2.83;1.70;;;;;;;31.77;32.02;100832.03;5007793;28;20057;-66
2022/07/19 06:55:17;;;;;;;4.10;2.13;;;;;;;31.79;30.87;100831.75;5009641;28;20030;-66
2022/07/19 06:57:42;;;;;;;3.20;1.90;;;;;;;31.78;30.83;100830.94;5009540;28;20068;-66
2022/07/19 07:00:09;;;;;;;3.60;1.80;;;;;;;31.99;30.84;100822.56;5011585;28;20046;-67
2022/07/19 07:02:38;;;;;;;3.78;2.00;;;;;;;32.12;30.29;100827.38;5018438;28;20498;-66
2022/07/19 07:05:05;;;;;;;2.78;1.80;;;;;;;32.21;30.32;100828.38;5015824;28;20431;-66
2022/07/19 07:07:30;;;;;;;3.78;2.03;;;;;;;32.15;30.35;100832.25;5021503;28;20030;-66
2022/07/19 07:09:56;;;;;;;4.38;1.85;;;;;;;32.16;30.63;100837.47;5019105;28;20105;-66
2022/07/19 07:12:21;;;;;;;3.35;1.63;;;;;;;32.29;31.04;100833.22;5012055;28;20046;-66
2022/07/19 07:14:46;;;;;;;3.87;2.00;;;;;;;32.43;31.18;100832.53;5016868;28;20213;-66
2022/07/19 07:17:12;;;;;;;3.67;1.85;;;;;;;32.75;30.59;100834.63;5014460;28;20358;-66
2022/07/19 07:19:37;;;;;;;4.93;2.20;;;;;;;32.78;30.00;100837.59;5014807;28;20125;-66
2022/07/19 07:22:02;;;;;;;3.72;1.65;;;;;;;32.99;30.14;100840.91;5018262;28;20288;-66
2022/07/19 07:24:28;;;;;;;3.03;1.50;;;;;;;33.24;30.03;100838.94;5012017;28;20165;-66
2022/07/19 07:26:53;;;;;;;3.67;1.50;;;;;;;33.62;29.39;100841.66;5016517;28;20545;-66
2022/07/19 07:29:19;;;;;;;3.92;1.73;;;;;;;33.65;28.49;100840.25;5015979;28;20070;-66
2022/07/19 07:31:44;;;;;;;3.05;1.23;;;;;;;33.80;28.34;100837.25;5013164;28;20040;-66
2022/07/19 07:34:10;;;;;;;4.40;1.73;;;;;;;33.92;27.66;100836.75;5014998;28;20065;-66
2022/07/19 07:36:35;;;;;;;2.70;1.17;;;;;;;34.31;27.69;100839.09;5013626;28;20033;-66
2022/07/19 07:39:01;;;;;;;2.80;1.60;;;;;;;34.69;26.89;100833.44;5013524;28;20034;-66
2022/07/19 07:41:26;;;;;;;3.38;1.30;;;;;;;34.86;26.49;100830.84;5014552;28;20057;-66
2022/07/19 07:43:51;;;;;;;2.75;1.33;;;;;;;35.62;25.66;100833.00;5017819;28;20494;-67
2022/07/19 07:46:17;;;;;;;2.20;1.17;;;;;;;35.62;25.36;100832.19;5015378;28;20399;-68
2022/07/19 07:48:42;;;;;;;;;;;;;;;35.73;25.66;100830.81;5015332;28;20030;-67
2022/07/19 07:51:07;;;;;;;;;;;;;;;35.71;24.80;100825.63;5017351;28;19921;-68
2022/07/19 07:53:32;;;;;;;2.80;1.50;;;;;;;35.51;24.66;100821.41;5014907;28;19921;-68
2022/07/19 07:55:58;;;;;;;;;;;;;;;35.59;24.94;100830.88;5012079;28;20289;-68
2022/07/19 07:58:23;;;;;;;;;;;;;;;35.81;24.53;100830.06;5016598;28;19928;-67
2022/07/19 08:00:48;;;;;;;4.87;1.57;;;;;;;36.10;24.45;100826.84;5016048;28;19921;-71
2022/07/19 08:03:13;;;;;;;4.00;1.40;;;;;;;36.70;24.08;100824.63;5014286;28;20060;-68
2022/07/19 08:05:39;;;;;;;1.90;1.20;;;;;;;36.89;22.82;100827.09;5010511;28;20448;-68
2022/07/19 08:08:05;;;;;;;;;;;;;;;36.56;22.95;100816.47;5016310;28;20324;-68
2022/07/19 08:10:35;;;;;;;;;;;;;;;36.33;22.81;100815.75;5009859;28;19918;-68
2022/07/19 08:13:00;;;;;;;;;;;;;;;36.42;22.71;100818.53;5012359;28;19921;-69
2022/07/19 08:15:25;;;;;;;;;;;;;;;36.83;22.65;100811.84;5027192;28;20008;-68
2022/07/19 08:17:51;;;;;;;;;;;;;;;37.26;22.41;100819.34;5017424;28;19921;-69
2022/07/19 08:20:16;;;;;;;;;;;;;;;37.91;21.66;100811.97;5012973;28;20004;-69
2022/07/19 08:22:41;;;;;;;;;;;;;;;38.49;21.62;100809.66;5020061;28;19963;-68
2022/07/19 08:25:07;;;;;;;4.72;1.52;;;;;;;38.73;21.05;100804.28;5014870;28;19917;-69
2022/07/19 08:27:33;;;;;;;3.72;1.58;;;;;;;38.72;20.48;100804.63;5015375;28;20494;-69
2022/07/19 08:29:59;;;;;;;2.45;1.33;;;;;;;38.89;20.55;100801.72;5014360;28;20026;-69
2022/07/19 08:32:24;;;;;;;2.25;1.65;;;;;;;39.18;20.42;100802.81;5013964;28;20582;-68
2022/07/19 08:34:49;;;;;;;2.72;1.40;;;;;;;39.19;19.74;100796.13;4999928;28;20054;-69
2022/07/19 08:37:15;;;;;;;1.70;1.25;;;;;;;39.24;20.00;100801.47;4998285;28;20087;-68
2022/07/19 08:39:40;;;;;;;2.63;1.37;;;;;;;39.69;19.33;100795.19;4996153;28;20068;-68
2022/07/19 08:42:05;;;;;;;3.20;1.75;;;;;;;39.89;19.12;100793.50;4997316;28;20308;-70
2022/07/19 08:44:35;;;;;;;3.45;1.65;;;;;;;39.89;19.24;100793.50;5014095;28;20034;-68
2022/07/19 08:47:01;;;;;;;8.45;1.58;;;;;;;40.44;19.08;100799.66;5010128;28;20041;-68
2022/07/19 08:49:26;;;;;;;5.00;1.40;;;;;;;40.73;18.76;100795.81;5012812;28;20042;-69
2022/07/19 08:51:52;;;;;;;2.60;1.50;;;;;;;40.72;18.43;100786.72;5012306;28;20033;-68
2022/07/19 08:54:19;;;;;;;3.72;1.48;;;;;;;41.28;18.15;100787.91;5011762;28;20123;-68
2022/07/19 08:59:28;;;;;;;2.88;1.00;;;;;;;42.76;17.37;100782.84;5007116;28;20070;-69
2022/07/19 09:01:53;;;;;;;;;;;;;;;43.18;16.72;100784.94;5016525;28;20030;-69
2022/07/19 09:04:19;;;;;;;;;;;;;;;43.45;16.80;100785.88;5013912;28;20128;-69
2022/07/19 09:06:55;;;;;;;;;;;;;;;43.01;15.76;100780.63;5012771;28;19917;-69
2022/07/19 09:09:25;;;;;;;4.32;1.50;;;;;;;43.30;15.42;100784.00;5010757;28;20650;-68
2022/07/19 09:11:52;;;;;;;2.05;1.20;;;;;;;43.76;15.13;100775.69;5014211;28;20670;-68
2022/07/19 09:14:22;;;;;;;1.95;1.00;;;;;;;44.32;15.38;100785.34;5006658;28;20874;-68
2022/07/19 09:17:12;;;;;;;2.67;1.20;;;;;;;44.40;15.09;100786.25;5014263;28;20045;-69
2022/07/19 09:19:44;;;;;;;3.22;1.15;;;;;;;44.45;14.36;100780.38;4985900;28;20132;-69
2022/07/19 09:22:14;;;;;;;2.85;1.30;;;;;;;44.48;14.64;100774.88;5008278;28;20076;-70
2022/07/19 09:24:43;;;;;;;3.08;1.60;;;;;;;44.84;14.13;100774.53;4998805;28;20057;-68
2022/07/19 09:27:11;;;;;;;3.05;1.42;;;;;;;45.42;13.66;100768.41;5015676;28;20038;-68
2022/07/19 09:29:42;;;;;;;2.10;1.23;;;;;;;45.87;13.85;100768.44;5012369;28;20184;-69
2022/07/19 09:32:15;;;;;;;2.90;1.33;;;;;;;46.64;13.12;100768.53;5016081;28;20045;-68
2022/07/19 09:34:48;;;;;;;2.13;1.20;;;;;;;46.76;12.59;100755.03;4995538;28;20280;-69
2022/07/19 09:37:20;;;;;;;1.90;1.20;;;;;;;46.51;12.46;100763.28;5012073;28;20097;-69
2022/07/19 09:39:47;;;;;;;4.90;1.30;;;;;;;46.86;11.96;100761.84;5011669;28;20096;-67
2022/07/19 09:42:15;;;;;;;2.30;1.15;;;;;;;46.65;12.10;100750.53;5011730;28;20132;-67
2022/07/19 09:44:41;;;;;;;2.28;1.20;;;;;;;47.14;11.60;100757.56;5013030;28;20048;-67
2022/07/19 09:47:07;;;;;;;4.57;1.50;;;;;;;47.07;11.58;100749.13;5001875;28;20482;-67
2022/07/19 09:49:32;;;;;;;3.03;1.20;;;;;;;47.70;10.70;100744.81;5011820;28;20065;-67
2022/07/19 09:51:58;;;;;;;2.30;1.00;;;;;;;48.17;10.72;100744.75;5011301;28;20068;-67
2022/07/19 09:54:28;;;;;;;2.85;1.40;;;;;;;47.22;10.98;100745.97;5009205;28;20627;-67
2022/07/19 09:56:54;;;;;;;;;;;;;;;46.77;10.81;100747.41;5015814;28;20493;-67
2022/07/19 09:59:21;;;;;;;4.32;1.17;;;;;;;47.21;11.52;100737.97;5012278;28;19928;-67
2022/07/19 10:01:48;;;;;;;2.80;1.08;;;;;;;47.91;11.21;100734.81;5012457;28;20034;-67
2022/07/19 10:04:18;;;;;;;4.07;1.30;;;;;;;48.53;10.93;100734.22;5010524;28;20030;-69
2022/07/19 10:06:45;;;;;;;2.75;1.35;;;;;;;48.32;9.93;100735.13;5018311;28;20040;-69
2022/07/19 10:09:13;;;;;;;4.15;1.20;;;;;;;48.32;10.52;100726.72;5004142;28;20513;-69
2022/07/19 10:11:39;;;;;;;3.33;1.20;;;;;;;48.16;10.90;100727.13;5001352;28;20161;-69
2022/07/19 10:14:04;;;;;;;;;;;;;;;48.19;10.27;100726.31;5002011;28;20054;-67
2022/07/19 10:16:48;;;;;;;3.10;1.40;;;;;;;49.49;9.93;100723.66;5001212;28;20147;-67
2022/07/19 10:19:18;;;;;;;2.83;1.40;;;;;;;50.03;9.42;100732.41;4999594;28;20037;-67
2022/07/19 10:21:45;;;;;;;2.17;1.10;;;;;;;49.70;9.14;100725.50;5003633;28;20037;-67
2022/07/19 10:24:10;;;;;;;3.67;1.38;;;;;;;49.28;9.13;100716.19;5003500;28;20030;-67
2022/07/19 10:26:37;;;;;;;2.35;1.20;;;;;;;49.10;9.28;100716.31;5007599;28;20040;-67
2022/07/19 10:29:11;;;;;;;1.73;1.00;;;;;;;49.67;8.76;100710.25;5008759;28;20521;-67
2022/07/19 10:31:38;;;;;;;2.00;1.17;;;;;;;49.90;7.92;100706.81;5007468;28;20042;-67
2022/07/19 10:34:08;;;;;;;2.05;1.00;;;;;;;48.87;8.13;100708.44;4992367;28;20498;-67
2022/07/19 10:36:37;;;;;;;2.83;1.10;;;;;;;48.09;8.01;100693.50;4988153;28;20038;-67
2022/07/19 10:39:18;;;;;;;2.10;1.25;;;;;;;47.80;8.13;100693.56;4988732;28;20030;-67
2022/07/19 10:42:06;;;;;;;4.32;1.20;;;;;;;47.32;8.36;100702.38;4986343;28;20046;-66
2022/07/19 10:44:32;;;;;;;3.22;1.20;;;;;;;47.23;8.29;100688.75;4994393;28;20057;-67
2022/07/19 10:46:57;;;;;;;1.60;1.00;;;;;;;46.65;8.38;100681.41;5008721;28;20046;-68
2022/07/19 10:49:46;;;;;;;3.87;1.10;;;;;;;47.15;8.66;100692.78;5006633;28;20522;-66
2022/07/19 10:52:26;;;;;;;2.95;1.20;;;;;;;47.02;8.82;100683.13;5008231;28;20293;-67
2022/07/19 10:55:14;;;;;;;3.58;1.40;;;;;;;47.42;8.57;100690.34;5008803;28;20060;-67
2022/07/19 10:57:39;;;;;;;2.05;1.20;;;;;;;46.85;8.73;100681.88;5013827;28;20044;-67
2022/07/19 11:00:28;;;;;;;2.43;1.27;;;;;;;46.05;9.06;100674.34;5008917;28;20037;-66
2022/07/19 11:03:21;;;;;;;1.60;1.10;;;;;;;46.13;9.05;100672.41;5010905;28;20289;-67
2022/07/19 11:05:54;;;;;;;2.80;1.33;;;;;;;46.86;8.96;100669.47;5010581;28;20126;-66
2022/07/19 11:08:37;;;;;;;2.45;1.20;;;;;;;46.91;8.37;100674.69;5008938;28;20177;-66
2022/07/19 11:11:07;;;;;;;2.17;1.15;;;;;;;47.21;9.02;100663.16;5010339;28;20038;-67
2022/07/19 11:13:33;;;;;;;2.03;1.27;;;;;;;47.67;8.23;100649.53;5009294;28;20121;-67
2022/07/19 11:15:59;;;;;;;6.10;1.48;;;;;;;48.16;8.40;100657.03;4991497;28;20498;-67
2022/07/19 11:18:24;;;;;;;3.30;1.35;;;;;;;47.24;8.42;100653.16;5007460;28;20135;-66
2022/07/19 11:20:50;;;;;;;1.90;1.30;;;;;;;47.33;8.47;100647.94;5010379;28;20087;-67
2022/07/19 11:23:22;;;;;;;3.17;1.13;;;;;;;48.23;7.81;100642.22;5009057;28;20076;-67
2022/07/19 11:25:50;;;;;;;2.92;1.23;;;;;;;48.35;8.25;100644.53;5000504;28;20296;-66
2022/07/19 11:28:23;;;;;;;3.63;1.20;;;;;;;48.48;8.00;100642.06;5012520;28;20489;-67
2022/07/19 11:30:49;;;;;;;2.45;1.40;;;;;;;48.22;8.24;100641.38;5019437;28;20121;-66
2022/07/19 11:33:21;;;;;;;2.20;1.20;;;;;;;48.73;7.61;100633.53;5017144;28;20538;-67
2022/07/19 11:35:57;;;;;;;2.28;1.20;;;;;;;49.48;7.16;100623.72;5015318;28;20050;-66